Time;durP1;ratioP1;P1;durP2;ratioP2;P2;SDS_P1;SDS_P2;PMS_P1;PMS_P2;Temp;Humidity;BMP_temperature;BMP_pressure;BME280_temperature;BME280_humidity;BME280_pressure;Samples;Min_cycle;Max_cycle;Signal;HPM_P1;HPM_P2
2024/01/23 00:00:52;;;;;;;16.93;3.83;;;;;;;;;;5096705;28;20712;-55
2024/01/23 00:03:18;;;;;;;11.90;2.90;;;;;;;;;;5096789;28;20175;-52
2024/01/23 00:05:44;;;;;;;14.97;4.07;;;;;;;;;;5097342;28;20477;-56
2024/01/23 00:08:11;;;;;;;12.37;3.60;;;;;;;;;;5097911;28;20199;-56
2024/01/23 00:10:37;;;;;;;9.90;2.93;;;;;;;;;;5096013;28;20689;-56
2024/01/23 00:13:03;;;;;;;14.60;3.93;;;;;;;;;;5097511;28;20179;-55
2024/01/23 00:15:29;;;;;;;11.97;3.57;;;;;;;;;;5110941;28;20238;-55
2024/01/23 00:17:55;;;;;;;15.60;3.70;;;;;;;;;;5117662;28;20175;-52
2024/01/23 00:20:21;;;;;;;15.63;3.60;;;;;;;;;;5095823;28;20239;-57
2024/01/23 00:22:47;;;;;;;13.73;3.50;;;;;;;;;;5112688;28;20375;-61
2024/01/23 00:25:13;;;;;;;19.73;3.80;;;;;;;;;;5093130;28;20171;-61
2024/01/23 00:27:39;;;;;;;18.63;3.37;;;;;;;;;;5094892;28;20210;-61
2024/01/23 00:30:07;;;;;;;13.83;3.37;;;;;;;;;;5095551;28;20171;-61
2024/01/23 00:32:33;;;;;;;15.17;3.83;;;;;;;;;;5095656;28;20463;-61
2024/01/23 00:34:59;;;;;;;11.90;3.50;;;;;;;;;;5095784;28;20572;-61
2024/01/23 00:37:25;;;;;;;14.87;3.67;;;;;;;;;;5096674;28;20734;-57
2024/01/23 00:39:54;;;;;;;17.93;3.20;;;;;;;;;;5095697;28;20263;-55
2024/01/23 00:42:20;;;;;;;19.07;3.83;;;;;;;;;;5113501;28;20163;-53
2024/01/23 00:44:46;;;;;;;12.17;3.83;;;;;;;;;;5096487;28;20180;-53
2024/01/23 00:47:13;;;;;;;15.50;3.30;;;;;;;;;;5096196;28;20347;-54
2024/01/23 00:49:39;;;;;;;11.73;3.30;;;;;;;;;;5096618;28;20454;-57
2024/01/23 00:52:05;;;;;;;9.27;3.27;;;;;;;;;;5096544;28;20581;-56
2024/01/23 00:54:30;;;;;;;15.97;4.10;;;;;;;;;;5095689;28;20214;-54
2024/01/23 00:56:56;;;;;;;15.20;3.33;;;;;;;;;;5096069;28;20545;-56
2024/01/23 00:59:23;;;;;;;14.57;4.30;;;;;;;;;;5114364;28;20182;-56
2024/01/23 01:01:49;;;;;;;17.97;4.13;;;;;;;;;;5096514;28;20262;-57
2024/01/23 01:04:18;;;;;;;16.20;4.30;;;;;;;;;;5097115;28;20270;-57
2024/01/23 01:06:44;;;;;;;12.87;3.03;;;;;;;;;;5113855;28;20268;-56
2024/01/23 01:09:10;;;;;;;11.53;2.40;;;;;;;;;;5095507;28;20179;-54
2024/01/23 01:11:36;;;;;;;10.07;2.47;;;;;;;;;;5096763;28;20240;-55
2024/01/23 01:14:02;;;;;;;6.77;1.67;;;;;;;;;;5096430;28;20384;-54
2024/01/23 01:16:29;;;;;;;7.93;1.60;;;;;;;;;;5096003;28;20263;-56
2024/01/23 01:18:55;;;;;;;14.63;3.13;;;;;;;;;;5096993;28;20607;-55
2024/01/23 01:21:21;;;;;;;5.97;1.80;;;;;;;;;;5113909;28;20179;-56
2024/01/23 01:23:47;;;;;;;9.43;1.80;;;;;;;;;;5096350;28;20183;-56
2024/01/23 01:26:13;;;;;;;7.67;2.73;;;;;;;;;;5096243;28;20184;-53
2024/01/23 01:28:40;;;;;;;11.40;2.70;;;;;;;;;;5113653;28;20175;-56
2024/01/23 01:31:06;;;;;;;7.20;2.37;;;;;;;;;;5094627;28;20371;-57
2024/01/23 01:33:34;;;;;;;4.03;1.63;;;;;;;;;;5095646;28;20171;-57
2024/01/23 01:36:00;;;;;;;7.47;2.13;;;;;;;;;;5096290;28;20251;-55
2024/01/23 01:38:26;;;;;;;11.93;2.43;;;;;;;;;;5095538;28;20526;-55
2024/01/23 01:40:54;;;;;;;6.37;2.53;;;;;;;;;;5096388;28;20171;-55
2024/01/23 01:43:30;;;;;;;7.37;2.50;;;;;;;;;;5096362;28;20213;-55
2024/01/23 01:46:04;;;;;;;13.17;2.57;;;;;;;;;;5096545;28;20198;-54
2024/01/23 01:48:31;;;;;;;15.00;2.20;;;;;;;;;;5114306;28;20198;-56
2024/01/23 01:50:57;;;;;;;12.90;3.27;;;;;;;;;;5113665;28;20174;-51
2024/01/23 01:53:23;;;;;;;10.57;2.40;;;;;;;;;;5095802;28;20461;-57
2024/01/23 01:55:49;;;;;;;14.80;3.13;;;;;;;;;;5096118;28;20619;-53
2024/01/23 01:58:17;;;;;;;14.67;2.40;;;;;;;;;;5113806;28;20546;-53
2024/01/23 02:00:43;;;;;;;8.93;2.33;;;;;;;;;;5096084;28;20182;-54
2024/01/23 02:03:08;;;;;;;10.37;2.63;;;;;;;;;;5095912;28;20175;-55
2024/01/23 02:05:34;;;;;;;12.27;2.40;;;;;;;;;;5113500;28;20441;-53
2024/01/23 02:08:00;;;;;;;11.47;2.47;;;;;;;;;;5095870;28;20203;-57
2024/01/23 02:10:26;;;;;;;8.63;2.73;;;;;;;;;;5097376;28;20185;-57
2024/01/23 02:12:52;;;;;;;10.07;2.23;;;;;;;;;;5118294;28;20673;-56
2024/01/23 02:15:19;;;;;;;9.60;2.77;;;;;;;;;;5097058;28;20219;-53
2024/01/23 02:17:45;;;;;;;8.80;2.43;;;;;;;;;;5097241;28;20232;-56
2024/01/23 02:20:11;;;;;;;10.90;2.80;;;;;;;;;;5097951;28;20180;-56
2024/01/23 02:22:38;;;;;;;11.00;2.40;;;;;;;;;;5096858;28;20195;-56
2024/01/23 02:25:04;;;;;;;9.13;2.30;;;;;;;;;;5095532;28;20180;-55
2024/01/23 02:27:33;;;;;;;11.83;2.50;;;;;;;;;;5095653;28;20199;-55
2024/01/23 02:29:59;;;;;;;10.00;2.83;;;;;;;;;;5095249;28;20452;-55
2024/01/23 02:32:25;;;;;;;12.33;3.27;;;;;;;;;;5094179;28;20540;-56
2024/01/23 02:34:51;;;;;;;15.27;3.13;;;;;;;;;;5095039;28;20168;-56
2024/01/23 02:37:17;;;;;;;9.17;2.73;;;;;;;;;;5094428;28;20237;-53
2024/01/23 02:39:46;;;;;;;10.27;2.07;;;;;;;;;;5096525;28;20502;-56
2024/01/23 02:42:12;;;;;;;9.03;2.13;;;;;;;;;;5096450;28;20203;-56
2024/01/23 02:44:40;;;;;;;6.50;2.00;;;;;;;;;;5094540;28;20175;-50
2024/01/23 02:47:07;;;;;;;11.67;2.97;;;;;;;;;;5097320;28;20188;-53
2024/01/23 02:49:33;;;;;;;11.47;3.13;;;;;;;;;;5095827;28;20187;-53
2024/01/23 02:51:59;;;;;;;10.33;2.30;;;;;;;;;;5096259;28;20180;-57
2024/01/23 02:54:26;;;;;;;12.73;3.13;;;;;;;;;;5097370;28;20446;-57
2024/01/23 02:56:52;;;;;;;15.20;3.10;;;;;;;;;;5098453;28;20164;-56
2024/01/23 02:59:18;;;;;;;9.10;2.20;;;;;;;;;;5096400;28;20199;-56
2024/01/23 03:01:44;;;;;;;10.10;2.93;;;;;;;;;;5095060;28;20176;-56
2024/01/23 03:04:10;;;;;;;13.97;2.33;;;;;;;;;;5096274;28;20191;-55
2024/01/23 03:06:36;;;;;;;9.07;2.77;;;;;;;;;;5096313;28;20210;-52
2024/01/23 03:09:02;;;;;;;9.87;3.10;;;;;;;;;;5094979;28;20267;-54
2024/01/23 03:11:28;;;;;;;11.80;2.87;;;;;;;;;;5095210;28;20465;-55
2024/01/23 03:13:55;;;;;;;15.13;2.87;;;;;;;;;;5095507;28;20232;-51
2024/01/23 03:16:21;;;;;;;9.97;2.40;;;;;;;;;;5115644;28;20223;-52
2024/01/23 03:18:48;;;;;;;14.87;3.63;;;;;;;;;;5098004;28;20262;-55
2024/01/23 03:21:17;;;;;;;11.60;3.43;;;;;;;;;;5096077;28;20186;-57
2024/01/23 03:23:44;;;;;;;17.53;2.80;;;;;;;;;;5096810;28;20167;-55
2024/01/23 03:26:10;;;;;;;12.03;2.17;;;;;;;;;;5096766;28;20175;-54
2024/01/23 03:28:36;;;;;;;14.53;3.70;;;;;;;;;;5097972;28;20203;-52
2024/01/23 03:31:03;;;;;;;9.23;2.30;;;;;;;;;;5097962;28;20523;-57
2024/01/23 03:33:30;;;;;;;11.43;3.43;;;;;;;;;;5116493;28;20172;-56
2024/01/23 03:35:56;;;;;;;17.90;3.20;;;;;;;;;;5098219;28;20459;-55
2024/01/23 03:38:22;;;;;;;17.93;3.73;;;;;;;;;;5097590;28;20256;-55
2024/01/23 03:40:48;;;;;;;16.83;3.20;;;;;;;;;;5098016;28;20473;-54
2024/01/23 03:43:14;;;;;;;13.97;2.87;;;;;;;;;;5098213;28;20264;-52
2024/01/23 03:45:40;;;;;;;15.77;2.80;;;;;;;;;;5116260;28;20175;-56
2024/01/23 03:48:06;;;;;;;13.33;3.37;;;;;;;;;;5115169;28;20199;-56
2024/01/23 03:50:32;;;;;;;14.73;3.20;;;;;;;;;;5097860;28;20167;-53
2024/01/23 03:52:59;;;;;;;12.73;3.50;;;;;;;;;;5097366;28;20384;-52
2024/01/23 03:55:26;;;;;;;15.33;2.77;;;;;;;;;;5097710;28;20182;-53
2024/01/23 03:57:52;;;;;;;18.10;3.57;;;;;;;;;;5098010;28;20210;-52
2024/01/23 04:00:18;;;;;;;10.87;3.50;;;;;;;;;;5097851;28;20194;-54
2024/01/23 04:02:44;;;;;;;19.97;4.10;;;;;;;;;;5098005;28;20261;-52
2024/01/23 04:05:10;;;;;;;21.13;4.13;;;;;;;;;;5097951;28;20290;-51
2024/01/23 04:07:36;;;;;;;18.77;3.67;;;;;;;;;;5115673;28;20480;-55
2024/01/23 04:10:02;;;;;;;17.93;3.70;;;;;;;;;;5097636;28;20164;-54
2024/01/23 04:12:29;;;;;;;12.80;3.60;;;;;;;;;;5097735;28;20178;-56
2024/01/23 04:14:55;;;;;;;20.33;4.27;;;;;;;;;;5094415;28;20235;-55
2024/01/23 04:17:21;;;;;;;8.93;3.00;;;;;;;;;;5094340;28;20172;-55
2024/01/23 04:19:47;;;;;;;19.70;4.77;;;;;;;;;;5093661;28;20172;-54
2024/01/23 04:22:14;;;;;;;13.57;3.53;;;;;;;;;;5093511;28;20454;-54
2024/01/23 04:24:40;;;;;;;15.07;4.33;;;;;;;;;;5096347;28;20562;-53
2024/01/23 04:27:07;;;;;;;19.67;4.07;;;;;;;;;;5095783;28;20242;-53
2024/01/23 04:29:33;;;;;;;23.60;4.50;;;;;;;;;;5094097;28;20271;-52
2024/01/23 04:31:59;;;;;;;16.20;3.47;;;;;;;;;;5092811;28;20262;-57
2024/01/23 04:34:25;;;;;;;14.40;3.73;;;;;;;;;;5092396;28;20174;-54
2024/01/23 04:36:51;;;;;;;20.90;3.87;;;;;;;;;;5093819;28;20180;-55
2024/01/23 04:39:17;;;;;;;21.07;3.73;;;;;;;;;;5094089;28;20440;-53
2024/01/23 04:41:43;;;;;;;14.30;3.93;;;;;;;;;;5095764;28;20179;-57
2024/01/23 04:44:09;;;;;;;20.60;4.67;;;;;;;;;;5092398;28;20550;-56
2024/01/23 04:46:36;;;;;;;15.10;4.30;;;;;;;;;;5092569;28;20574;-56
2024/01/23 04:49:02;;;;;;;20.20;3.20;;;;;;;;;;5093286;28;20263;-55
2024/01/23 04:51:29;;;;;;;20.33;3.60;;;;;;;;;;5093313;28;20504;-55
2024/01/23 04:53:55;;;;;;;21.47;4.30;;;;;;;;;;5092414;28;20329;-55
2024/01/23 04:56:22;;;;;;;20.03;4.13;;;;;;;;;;5093600;28;20175;-57
2024/01/23 04:58:49;;;;;;;17.40;4.57;;;;;;;;;;5093093;28;20515;-56
2024/01/23 05:01:17;;;;;;;17.00;3.67;;;;;;;;;;5093483;28;20189;-57
2024/01/23 05:03:43;;;;;;;19.30;2.70;;;;;;;;;;5094194;28;20170;-55
2024/01/23 05:06:09;;;;;;;12.67;3.67;;;;;;;;;;5093174;28;20974;-55
2024/01/23 05:08:35;;;;;;;21.63;5.03;;;;;;;;;;5092767;28;20200;-55
2024/01/23 05:11:01;;;;;;;16.20;3.43;;;;;;;;;;5092254;28;20172;-53
2024/01/23 05:13:27;;;;;;;13.83;3.70;;;;;;;;;;5092562;28;20168;-57
2024/01/23 05:15:53;;;;;;;18.00;4.03;;;;;;;;;;5091908;28;20481;-57
2024/01/23 05:18:19;;;;;;;15.60;3.13;;;;;;;;;;5091794;28;20544;-57
2024/01/23 05:20:45;;;;;;;21.57;4.27;;;;;;;;;;5090486;28;20208;-57
2024/01/23 05:23:11;;;;;;;21.33;4.17;;;;;;;;;;5090443;28;20171;-57
2024/01/23 05:25:38;;;;;;;13.20;3.53;;;;;;;;;;5089328;28;20184;-54
2024/01/23 05:28:04;;;;;;;12.30;3.70;;;;;;;;;;5088404;28;20207;-53
2024/01/23 05:30:32;;;;;;;14.70;4.40;;;;;;;;;;5089669;28;20179;-54
2024/01/23 05:32:58;;;;;;;19.83;4.13;;;;;;;;;;5089385;28;20164;-57
2024/01/23 05:35:24;;;;;;;14.60;3.53;;;;;;;;;;5088964;28;20174;-56
2024/01/23 05:37:50;;;;;;;22.70;4.67;;;;;;;;;;5090657;28;20176;-56
2024/01/23 05:40:16;;;;;;;13.20;4.17;;;;;;;;;;5089817;28;20268;-57
2024/01/23 05:42:42;;;;;;;16.43;4.00;;;;;;;;;;5090427;28;20167;-56
2024/01/23 05:45:08;;;;;;;18.53;4.47;;;;;;;;;;5089811;28;20275;-55
2024/01/23 05:47:34;;;;;;;16.43;3.70;;;;;;;;;;5090460;28;20211;-55
2024/01/23 05:50:01;;;;;;;19.03;4.23;;;;;;;;;;5089154;28;20171;-57
2024/01/23 05:52:27;;;;;;;20.47;4.43;;;;;;;;;;5089134;28;20200;-53
2024/01/23 05:54:53;;;;;;;19.10;4.93;;;;;;;;;;5089579;28;20180;-57
2024/01/23 05:57:19;;;;;;;24.13;5.20;;;;;;;;;;5089872;28;20543;-56
2024/01/23 05:59:45;;;;;;;19.87;4.57;;;;;;;;;;5090414;28;20474;-55
2024/01/23 06:02:12;;;;;;;16.57;4.57;;;;;;;;;;5090328;28;20200;-54
2024/01/23 06:04:38;;;;;;;22.53;4.90;;;;;;;;;;5090250;28;20373;-50
2024/01/23 06:07:06;;;;;;;19.93;4.67;;;;;;;;;;5090020;28;20212;-55
2024/01/23 06:09:32;;;;;;;22.43;4.30;;;;;;;;;;5088781;28;20268;-55
2024/01/23 06:11:58;;;;;;;22.70;5.03;;;;;;;;;;5088507;28;20311;-57
2024/01/23 06:14:24;;;;;;;21.33;5.10;;;;;;;;;;5092091;28;20584;-57
2024/01/23 06:16:51;;;;;;;17.30;4.40;;;;;;;;;;5091533;28;20186;-56
2024/01/23 06:19:18;;;;;;;29.60;4.40;;;;;;;;;;5109428;28;20167;-55
2024/01/23 06:21:44;;;;;;;23.00;5.40;;;;;;;;;;5090222;28;20248;-57
2024/01/23 06:24:10;;;;;;;22.47;4.80;;;;;;;;;;5090245;28;20179;-57
2024/01/23 06:26:36;;;;;;;28.37;5.67;;;;;;;;;;5090586;28;20323;-57
2024/01/23 06:29:03;;;;;;;24.13;5.23;;;;;;;;;;5090200;28;20178;-57
2024/01/23 06:31:29;;;;;;;20.83;4.73;;;;;;;;;;5090331;28;20262;-55
2024/01/23 06:33:56;;;;;;;19.23;4.10;;;;;;;;;;5108444;28;20320;-57
2024/01/23 06:36:22;;;;;;;20.93;5.63;;;;;;;;;;5089701;28;20600;-55
2024/01/23 06:38:48;;;;;;;23.73;4.70;;;;;;;;;;5088582;28;20519;-55
2024/01/23 06:41:15;;;;;;;23.53;5.80;;;;;;;;;;5087548;28;20164;-55
2024/01/23 06:43:41;;;;;;;20.93;5.40;;;;;;;;;;5089234;28;20167;-54
2024/01/23 06:46:08;;;;;;;18.50;5.03;;;;;;;;;;5107433;28;20541;-57
2024/01/23 06:48:34;;;;;;;22.80;6.17;;;;;;;;;;5106520;28;20609;-60
2024/01/23 06:51:00;;;;;;;25.03;5.90;;;;;;;;;;5085598;28;20174;-56
2024/01/23 06:53:26;;;;;;;22.50;4.83;;;;;;;;;;5083415;28;20163;-56
2024/01/23 06:55:53;;;;;;;25.50;5.43;;;;;;;;;;5084174;28;20274;-54
2024/01/23 06:58:19;;;;;;;20.03;4.83;;;;;;;;;;5085923;28;20359;-54
2024/01/23 07:00:45;;;;;;;34.57;5.70;;;;;;;;;;5085419;28;20427;-54
2024/01/23 07:03:11;;;;;;;30.47;5.87;;;;;;;;;;5102649;28;20348;-57
2024/01/23 07:05:37;;;;;;;25.20;5.47;;;;;;;;;;5084380;28;20334;-57
2024/01/23 07:08:03;;;;;;;22.77;4.83;;;;;;;;;;5083717;28;20422;-58
2024/01/23 07:10:30;;;;;;;27.40;5.03;;;;;;;;;;5084932;28;20286;-57
2024/01/23 07:12:56;;;;;;;23.23;4.80;;;;;;;;;;5085874;28;20258;-54
2024/01/23 07:15:23;;;;;;;27.43;4.67;;;;;;;;;;5083612;28;20408;-55
2024/01/23 07:17:51;;;;;;;29.17;6.70;;;;;;;;;;5084052;28;20471;-56
2024/01/23 07:20:17;;;;;;;32.73;6.33;;;;;;;;;;5084304;28;20583;-56
2024/01/23 07:22:43;;;;;;;17.90;4.13;;;;;;;;;;5085400;28;20216;-54
2024/01/23 07:25:09;;;;;;;17.70;4.07;;;;;;;;;;5085708;28;20379;-56
2024/01/23 07:27:35;;;;;;;25.00;6.17;;;;;;;;;;5086008;28;20304;-55
2024/01/23 07:30:02;;;;;;;21.37;6.77;;;;;;;;;;5084491;28;20161;-55
2024/01/23 07:32:27;;;;;;;26.70;5.53;;;;;;;;;;5084349;28;20208;-54
2024/01/23 07:34:53;;;;;;;29.53;6.43;;;;;;;;;;5086854;28;20179;-57
2024/01/23 07:37:19;;;;;;;20.50;4.77;;;;;;;;;;5085285;28;20195;-56
2024/01/23 07:39:45;;;;;;;19.87;4.90;;;;;;;;;;5086867;28;20172;-54
2024/01/23 07:42:11;;;;;;;31.37;5.13;;;;;;;;;;5088256;28;20172;-55
2024/01/23 07:44:39;;;;;;;24.23;6.10;;;;;;;;;;5087317;28;20172;-53
2024/01/23 07:47:04;;;;;;;27.20;5.60;;;;;;;;;;5087641;28;20354;-53
2024/01/23 07:49:30;;;;;;;28.97;5.80;;;;;;;;;;5088365;28;20168;-57
2024/01/23 07:51:56;;;;;;;31.40;6.47;;;;;;;;;;5087449;28;20180;-54
2024/01/23 07:54:22;;;;;;;35.50;7.60;;;;;;;;;;5086722;28;20178;-54
2024/01/23 07:56:50;;;;;;;26.00;7.33;;;;;;;;;;5086890;28;20367;-55
2024/01/23 07:59:16;;;;;;;35.90;7.53;;;;;;;;;;5086807;28;20599;-57
2024/01/23 08:01:42;;;;;;;32.20;6.83;;;;;;;;;;5085677;28;20241;-56
2024/01/23 08:04:10;;;;;;;19.53;5.50;;;;;;;;;;5083444;28;20183;-55
2024/01/23 08:06:36;;;;;;;25.80;5.00;;;;;;;;;;5081032;28;20405;-54
2024/01/23 08:09:04;;;;;;;28.37;6.40;;;;;;;;;;5084653;28;20180;-55
2024/01/23 08:11:31;;;;;;;31.27;6.53;;;;;;;;;;5085534;28;20169;-55
2024/01/23 08:13:57;;;;;;;31.50;6.80;;;;;;;;;;5083737;28;20175;-53
2024/01/23 08:16:23;;;;;;;28.30;5.70;;;;;;;;;;5085439;28;20409;-56
2024/01/23 08:18:49;;;;;;;30.70;5.87;;;;;;;;;;5086949;28;20536;-57
2024/01/23 08:21:17;;;;;;;33.00;7.00;;;;;;;;;;5086022;28;20176;-56
2024/01/23 08:23:43;;;;;;;31.83;7.00;;;;;;;;;;5085766;28;20357;-55
2024/01/23 08:26:09;;;;;;;36.20;6.27;;;;;;;;;;5084457;28;20267;-57
2024/01/23 08:28:35;;;;;;;39.87;6.73;;;;;;;;;;5084695;28;20227;-53
2024/01/23 08:31:03;;;;;;;33.90;8.37;;;;;;;;;;5084953;28;20203;-54
2024/01/23 08:33:30;;;;;;;23.47;5.97;;;;;;;;;;5084493;28;20283;-54
2024/01/23 08:35:56;;;;;;;26.60;6.67;;;;;;;;;;5086906;28;20177;-56
2024/01/23 08:38:22;;;;;;;27.53;5.57;;;;;;;;;;5088058;28;20164;-53
2024/01/23 08:40:48;;;;;;;25.60;6.57;;;;;;;;;;5087164;28;20194;-53
2024/01/23 08:43:14;;;;;;;39.07;6.60;;;;;;;;;;5089041;28;20636;-55
2024/01/23 08:45:40;;;;;;;27.00;5.57;;;;;;;;;;5088544;28;20171;-57
2024/01/23 08:48:06;;;;;;;27.03;6.07;;;;;;;;;;5087501;28;20469;-55
2024/01/23 08:50:32;;;;;;;27.93;6.80;;;;;;;;;;5084983;28;20555;-57
2024/01/23 08:52:58;;;;;;;38.60;6.77;;;;;;;;;;5084518;28;20213;-55
2024/01/23 08:55:24;;;;;;;34.63;8.07;;;;;;;;;;5084296;28;20160;-55
2024/01/23 08:57:50;;;;;;;27.60;6.30;;;;;;;;;;5083668;28;20673;-54
2024/01/23 09:00:17;;;;;;;39.10;7.33;;;;;;;;;;5084520;28;20208;-57
2024/01/23 09:02:42;;;;;;;34.27;8.20;;;;;;;;;;5084710;28;20437;-54
2024/01/23 09:05:09;;;;;;;35.53;8.70;;;;;;;;;;5085303;28;20412;-56
2024/01/23 09:07:34;;;;;;;32.67;7.80;;;;;;;;;;5088322;28;20215;-54
2024/01/23 09:10:01;;;;;;;25.07;6.83;;;;;;;;;;5088280;28;20164;-54
2024/01/23 09:12:29;;;;;;;29.03;6.93;;;;;;;;;;5088322;28;20206;-55
2024/01/23 09:14:56;;;;;;;28.47;8.03;;;;;;;;;;5086054;28;20346;-56
2024/01/23 09:17:22;;;;;;;30.50;6.20;;;;;;;;;;5086478;28;20179;-53
2024/01/23 09:19:48;;;;;;;27.30;6.33;;;;;;;;;;5084241;28;20175;-56
2024/01/23 09:22:16;;;;;;;37.87;7.50;;;;;;;;;;5084993;28;20176;-57
2024/01/23 09:24:42;;;;;;;37.70;7.97;;;;;;;;;;5089786;28;20267;-56
2024/01/23 09:27:08;;;;;;;24.97;6.30;;;;;;;;;;5089616;28;20290;-55
2024/01/23 09:29:34;;;;;;;28.40;6.50;;;;;;;;;;5091482;28;20168;-57
2024/01/23 09:31:59;;;;;;;28.43;6.80;;;;;;;;;;5088836;28;20179;-55
2024/01/23 09:34:25;;;;;;;34.00;7.33;;;;;;;;;;5089953;28;20172;-57
2024/01/23 09:36:52;;;;;;;28.23;6.83;;;;;;;;;;5090899;28;20188;-57
2024/01/23 09:39:18;;;;;;;25.57;5.83;;;;;;;;;;5090347;28;20183;-54
2024/01/23 09:41:50;;;;;;;26.00;7.50;;;;;;;;;;5091184;28;20183;-53
2024/01/23 09:44:19;;;;;;;29.97;6.47;;;;;;;;;;5091154;28;20219;-54
2024/01/23 09:46:45;;;;;;;30.10;7.27;;;;;;;;;;5091213;28;20171;-56
2024/01/23 09:49:12;;;;;;;30.43;8.10;;;;;;;;;;5086310;28;20507;-55
2024/01/23 09:51:47;;;;;;;27.37;7.00;;;;;;;;;;5085612;28;20241;-55
2024/01/23 09:54:14;;;;;;;39.33;7.80;;;;;;;;;;5085599;28;20175;-54
2024/01/23 09:56:40;;;;;;;32.90;8.03;;;;;;;;;;5085766;28;20160;-55
2024/01/23 09:59:08;;;;;;;38.53;7.17;;;;;;;;;;5084297;28;20168;-53
2024/01/23 10:01:34;;;;;;;33.10;8.10;;;;;;;;;;5083781;28;20175;-55
2024/01/23 10:04:04;;;;;;;34.27;6.93;;;;;;;;;;5083475;28;20237;-55
2024/01/23 10:06:32;;;;;;;27.43;6.13;;;;;;;;;;5084981;28;20175;-53
2024/01/23 10:08:58;;;;;;;30.23;6.90;;;;;;;;;;5069125;28;20176;-53
2024/01/23 10:11:27;;;;;;;29.07;6.27;;;;;;;;;;5087931;28;20170;-55
2024/01/23 10:13:56;;;;;;;26.57;7.27;;;;;;;;;;5090544;28;20168;-57
2024/01/23 10:16:22;;;;;;;26.47;6.43;;;;;;;;;;5089757;28;20243;-54
2024/01/23 10:18:50;;;;;;;36.50;8.33;;;;;;;;;;5089257;28;20270;-56
2024/01/23 10:21:20;;;;;;;25.13;6.47;;;;;;;;;;5089453;28;20188;-56
2024/01/23 10:23:48;;;;;;;20.37;6.17;;;;;;;;;;5088122;28;20183;-56
2024/01/23 10:26:15;;;;;;;29.37;5.73;;;;;;;;;;5088451;28;20179;-56
2024/01/23 10:28:43;;;;;;;30.17;6.17;;;;;;;;;;5088803;28;20204;-54
2024/01/23 10:31:09;;;;;;;23.47;6.07;;;;;;;;;;5091021;28;20164;-55
2024/01/23 10:33:36;;;;;;;28.53;6.03;;;;;;;;;;5095739;28;20164;-55
2024/01/23 10:36:05;;;;;;;25.60;7.60;;;;;;;;;;5094401;28;20173;-54
2024/01/23 10:38:31;;;;;;;22.43;6.70;;;;;;;;;;5094252;28;20172;-54
2024/01/23 10:40:59;;;;;;;43.03;7.83;;;;;;;;;;5094388;28;20179;-55
2024/01/23 10:43:26;;;;;;;34.63;7.77;;;;;;;;;;5092943;28;20172;-54
2024/01/23 10:45:54;;;;;;;26.63;7.63;;;;;;;;;;5094064;28;20386;-55
2024/01/23 10:48:20;;;;;;;33.00;6.87;;;;;;;;;;5093765;28;20210;-56
2024/01/23 10:50:49;;;;;;;38.20;7.03;;;;;;;;;;5092429;28;20172;-56
2024/01/23 10:53:15;;;;;;;36.00;6.53;;;;;;;;;;5093753;28;20467;-54
2024/01/23 10:55:43;;;;;;;30.27;6.40;;;;;;;;;;5093358;28;20600;-56
2024/01/23 10:58:38;;;;;;;31.30;7.27;;;;;;;;;;5088377;28;20178;-56
2024/01/23 11:01:07;;;;;;;29.73;6.70;;;;;;;;;;5075129;28;20188;-53
2024/01/23 11:03:35;;;;;;;32.10;7.83;;;;;;;;;;5087825;28;20261;-57
2024/01/23 11:06:06;;;;;;;30.23;7.53;;;;;;;;;;5087258;28;20164;-51
2024/01/23 11:08:39;;;;;;;34.20;6.60;;;;;;;;;;5089104;28;20252;-55
2024/01/23 11:11:05;;;;;;;28.07;8.00;;;;;;;;;;5084869;28;20226;-56
2024/01/23 11:13:35;;;;;;;34.73;6.80;;;;;;;;;;5082000;28;20179;-57
2024/01/23 11:16:08;;;;;;;33.73;7.07;;;;;;;;;;5081461;28;20719;-56
2024/01/23 11:18:34;;;;;;;38.07;7.53;;;;;;;;;;5081653;28;20191;-56
2024/01/23 11:21:09;;;;;;;30.13;7.60;;;;;;;;;;5081858;28;20191;-57
2024/01/23 11:23:39;;;;;;;28.17;6.90;;;;;;;;;;5081399;28;20412;-53
2024/01/23 11:26:19;;;;;;;34.57;7.37;;;;;;;;;;5079104;28;20180;-55
2024/01/23 11:29:04;;;;;;;31.67;6.23;;;;;;;;;;5080822;28;20264;-55
2024/01/23 11:31:37;;;;;;;29.23;6.20;;;;;;;;;;5083601;28;20680;-57
2024/01/23 11:34:21;;;;;;;21.87;7.70;;;;;;;;;;5084003;28;20168;-57
2024/01/23 11:36:47;;;;;;;23.93;6.70;;;;;;;;;;5087679;28;20182;-53
2024/01/23 11:39:15;;;;;;;25.83;5.97;;;;;;;;;;5087071;28;20164;-56
2024/01/23 11:41:47;;;;;;;26.37;6.50;;;;;;;;;;5083974;28;20440;-56
2024/01/23 11:44:13;;;;;;;27.17;7.00;;;;;;;;;;5084930;28;20245;-56
2024/01/23 11:46:40;;;;;;;31.70;6.10;;;;;;;;;;5081565;28;20179;-55
2024/01/23 11:49:06;;;;;;;26.00;6.23;;;;;;;;;;5083958;28;20163;-55
2024/01/23 11:51:35;;;;;;;34.20;6.60;;;;;;;;;;5082351;28;20180;-53
2024/01/23 11:54:05;;;;;;;27.40;6.73;;;;;;;;;;5083090;28;20559;-57
2024/01/23 11:56:32;;;;;;;34.43;6.03;;;;;;;;;;5085060;28;20168;-53
2024/01/23 11:58:58;;;;;;;24.83;5.60;;;;;;;;;;5084610;28;20786;-56
2024/01/23 12:01:27;;;;;;;29.60;6.97;;;;;;;;;;5084039;28;20303;-56
2024/01/23 12:03:54;;;;;;;29.30;6.93;;;;;;;;;;5084857;28;20271;-54
2024/01/23 12:06:21;;;;;;;29.37;6.47;;;;;;;;;;5082534;28;20427;-54
2024/01/23 12:08:47;;;;;;;28.00;6.00;;;;;;;;;;5083029;28;20550;-55
2024/01/23 12:11:17;;;;;;;31.13;6.33;;;;;;;;;;5088576;28;20164;-57
2024/01/23 12:13:44;;;;;;;25.00;5.67;;;;;;;;;;5088907;28;20168;-54
2024/01/23 12:16:10;;;;;;;31.57;6.30;;;;;;;;;;5089315;28;20261;-55
2024/01/23 12:18:37;;;;;;;28.77;6.50;;;;;;;;;;5090240;28;20176;-57
2024/01/23 12:21:04;;;;;;;29.70;6.37;;;;;;;;;;5090139;28;20233;-57
2024/01/23 12:23:30;;;;;;;25.73;5.03;;;;;;;;;;5089771;28;20176;-57
2024/01/23 12:25:57;;;;;;;29.67;7.10;;;;;;;;;;5090880;28;20168;-57
2024/01/23 12:28:23;;;;;;;35.20;7.13;;;;;;;;;;5089730;28;20785;-56
2024/01/23 12:30:49;;;;;;;32.50;6.13;;;;;;;;;;5090129;28;20187;-55
2024/01/23 12:33:18;;;;;;;33.97;6.13;;;;;;;;;;5090814;28;20169;-56
2024/01/23 12:35:45;;;;;;;35.70;6.20;;;;;;;;;;5090003;28;20165;-54
2024/01/23 12:38:14;;;;;;;31.73;6.97;;;;;;;;;;5089908;28;20284;-56
2024/01/23 12:40:40;;;;;;;26.53;5.90;;;;;;;;;;5090915;28;20168;-56
2024/01/23 12:43:07;;;;;;;26.90;6.80;;;;;;;;;;5090492;28;20661;-57
2024/01/23 12:45:33;;;;;;;31.90;6.40;;;;;;;;;;5089941;28;20172;-55
2024/01/23 12:48:00;;;;;;;30.50;6.67;;;;;;;;;;5090109;28;20206;-56
2024/01/23 12:50:26;;;;;;;35.23;6.17;;;;;;;;;;5089456;28;20172;-54
2024/01/23 12:52:56;;;;;;;30.63;6.60;;;;;;;;;;5089608;28;20267;-56
2024/01/23 12:55:32;;;;;;;24.77;6.53;;;;;;;;;;5087717;28;20164;-55
2024/01/23 12:57:59;;;;;;;25.90;6.37;;;;;;;;;;5089716;28;20171;-57
2024/01/23 13:00:25;;;;;;;25.83;6.30;;;;;;;;;;5089174;28;20172;-54
2024/01/23 13:02:52;;;;;;;24.53;5.50;;;;;;;;;;5088178;28;20211;-57
2024/01/23 13:05:18;;;;;;;26.60;6.53;;;;;;;;;;5086454;28;20178;-54
2024/01/23 13:07:45;;;;;;;34.07;6.90;;;;;;;;;;5088639;28;20212;-57
2024/01/23 13:10:11;;;;;;;23.37;5.93;;;;;;;;;;5087373;28;20183;-57
2024/01/23 13:12:38;;;;;;;25.87;6.10;;;;;;;;;;5088516;28;20172;-57
2024/01/23 13:15:04;;;;;;;24.83;6.57;;;;;;;;;;5087388;28;20216;-57
2024/01/23 13:17:30;;;;;;;30.47;6.57;;;;;;;;;;5088656;28;20172;-57
2024/01/23 13:19:56;;;;;;;26.80;6.23;;;;;;;;;;5090245;28;20597;-54
2024/01/23 13:22:22;;;;;;;25.73;6.03;;;;;;;;;;5090260;28;20186;-57
2024/01/23 13:24:48;;;;;;;23.27;6.70;;;;;;;;;;5089037;28;20241;-57
2024/01/23 13:27:15;;;;;;;30.73;6.63;;;;;;;;;;5089297;28;20203;-57
2024/01/23 13:29:41;;;;;;;29.40;6.83;;;;;;;;;;5089471;28;20260;-57
2024/01/23 13:32:08;;;;;;;21.93;6.20;;;;;;;;;;5088818;28;20266;-55
2024/01/23 13:34:34;;;;;;;34.67;5.87;;;;;;;;;;5089384;28;20169;-56
2024/01/23 13:37:04;;;;;;;24.43;6.10;;;;;;;;;;5081425;28;20616;-55
2024/01/23 13:39:30;;;;;;;22.20;6.10;;;;;;;;;;5079485;28;20377;-53
2024/01/23 13:41:59;;;;;;;27.63;6.47;;;;;;;;;;5081799;28;20555;-55
2024/01/23 13:44:25;;;;;;;24.90;6.70;;;;;;;;;;5082071;28;20172;-56
2024/01/23 13:46:51;;;;;;;37.83;7.60;;;;;;;;;;5082971;28;20253;-53
2024/01/23 13:49:18;;;;;;;28.63;6.30;;;;;;;;;;5083773;28;20306;-54
2024/01/23 13:51:44;;;;;;;29.27;6.77;;;;;;;;;;5082840;28;20192;-57
2024/01/23 13:54:10;;;;;;;29.37;6.67;;;;;;;;;;5079746;28;20486;-56
2024/01/23 13:56:36;;;;;;;31.43;4.77;;;;;;;;;;5080848;28;20168;-54
2024/01/23 13:59:04;;;;;;;22.23;5.30;;;;;;;;;;5080503;28;20566;-54
2024/01/23 14:01:31;;;;;;;26.97;5.93;;;;;;;;;;5082318;28;20532;-56
2024/01/23 14:03:56;;;;;;;20.20;5.63;;;;;;;;;;5080803;28;20353;-55
2024/01/23 14:06:22;;;;;;;31.97;7.07;;;;;;;;;;5082331;28;20369;-52
2024/01/23 14:08:48;;;;;;;21.27;6.20;;;;;;;;;;5080751;28;20216;-56
2024/01/23 14:11:15;;;;;;;23.13;5.93;;;;;;;;;;5083015;28;20447;-54
2024/01/23 14:13:41;;;;;;;31.63;5.80;;;;;;;;;;5082108;28;20198;-53
2024/01/23 14:16:09;;;;;;;28.33;6.57;;;;;;;;;;5099172;28;20223;-56
2024/01/23 14:18:35;;;;;;;20.80;5.47;;;;;;;;;;5083874;28;20442;-57
2024/01/23 14:21:03;;;;;;;18.07;4.97;;;;;;;;;;5101650;28;20348;-59
2024/01/23 14:23:29;;;;;;;20.53;5.10;;;;;;;;;;5100070;28;20266;-58
2024/01/23 14:25:55;;;;;;;23.13;5.03;;;;;;;;;;5083549;28;20228;-54
2024/01/23 14:28:21;;;;;;;40.40;7.83;;;;;;;;;;5084905;28;20370;-56